NORTHEAST SUFFOLK  -  Rip Current Statement Rip Current Statement        NORTHERN NASSAU  -  Rip Current Statement Rip Current Statement        NORTHERN QUEENS  -  Rip Current Statement Rip Current Statement     Air Quality Alert Air Quality Alert        NORTHWEST SUFFOLK  -  Rip Current Statement Rip Current Statement        SOUTHEAST SUFFOLK  -  Rip Current Statement Rip Current Statement        SOUTHERN NASSAU  -  Rip Current Statement Rip Current Statement        SOUTHERN QUEENS  -  Rip Current Statement Rip Current Statement     Air Quality Alert Air Quality Alert        SOUTHWEST SUFFOLK  -  Rip Current Statement Rip Current Statement      

Active alerts

Northern Queens
  Details for Northern Queens Rip Current Statement  +1 additional alert
Southern Queens
  Details for Southern Queens Rip Current Statement  +1 additional alert
Northern Nassau
  Details for Northern Nassau Rip Current Statement
Southern Nassau
  Details for Southern Nassau Rip Current Statement
Northwest Suffolk
  Details for Northwest Suffolk Rip Current Statement
Southwest Suffolk
  Details for Southwest Suffolk Rip Current Statement
Northeast Suffolk
  Details for Northeast Suffolk Rip Current Statement
Southeast Suffolk
  Details for Southeast Suffolk Rip Current Statement


WXM80 ListenWXM80 Stop

You find our weather info also at:

UK Metoffice

WeatherCloud

Weather Underground

Northeastern Weather Network

AWEKAS

Citizen Weather Observer Program (CWOP)

HAMweather, WeatherForYou, PWS Weather


Weather Underground History page Text

Daily Summary for January 23, 2017 Units:  Metric    English   Both
« Previous Day
Next Day »
Daily Weekly Monthly Yearly Custom
  High: Low: Average:
Temperature: 6 °C 2.7 °C 4.3 °C
Dew Point: 5.1 °C 1.3 °C 2.6 °C
Humidity: 96 % 80 % 89 %
Wind Speed: 39.3 km/h 12.4 km/h 24.6 km/h
Wind Gust: 61.2 km/h - -
Wind:- - ENE
Pressure: 1010.7 hPa 997.2 hPa -
Precipitation: 16 mm    
Historical Graphs
 
 
Tabular Data for January 23, 2017
Time Temperature Dew Point Pressure Wind Wind Speed Wind Gust Humidity Rainfall Rate (Hourly)
00:02 6 °C 5.1 °C 1009.4 hPa East 17.5 km/h 24.1 km/h 94 % 0 mm
00:07 6 °C 5.1 °C 1009.4 hPa ENE 14.2 km/h 18.5 km/h 94 % 0 mm
00:12 5.9 °C 5.1 °C 1009.4 hPa ENE 12.4 km/h 20.9 km/h 94 % 0 mm
00:17 5.9 °C 5 °C 1009.4 hPa ENE 15.9 km/h 20.4 km/h 94 % 0 mm
00:22 5.8 °C 4.9 °C 1009.4 hPa ENE 17.9 km/h 25.7 km/h 94 % 0 mm
00:27 5.8 °C 4.9 °C 1009.4 hPa ENE 15.3 km/h 24.1 km/h 94 % 0 mm
00:32 5.9 °C 5 °C 1009.4 hPa East 18 km/h 22.2 km/h 94 % 0 mm
00:37 5.9 °C 5 °C 1009.4 hPa East 16.6 km/h 24.1 km/h 94 % 0 mm
00:42 5.9 °C 5 °C 1009.4 hPa ENE 17.1 km/h 20.4 km/h 94 % 0 mm
00:47 5.8 °C 4.9 °C 1009.4 hPa ENE 18.2 km/h 24.1 km/h 94 % 0 mm
00:52 5.8 °C 4.9 °C 1009.4 hPa East 15 km/h 20.4 km/h 94 % 0 mm
00:57 5.8 °C 4.9 °C 1009.4 hPa ENE 16.9 km/h 24.1 km/h 94 % 0 mm
01:02 5.8 °C 4.9 °C 1009.4 hPa ENE 14.3 km/h 18.5 km/h 94 % 0 mm
01:07 5.8 °C 4.9 °C 1009.4 hPa East 15.8 km/h 20.4 km/h 94 % 0 mm
01:12 5.7 °C 4.8 °C 1009.4 hPa ENE 17.9 km/h 24.1 km/h 94 % 0 mm
01:17 5.7 °C 4.8 °C 1009.4 hPa East 14.3 km/h 20.4 km/h 94 % 0 mm
01:22 5.7 °C 4.8 °C 1009.4 hPa ENE 17.5 km/h 29 km/h 94 % 0 mm
01:27 5.7 °C 4.8 °C 1009.4 hPa ENE 15.9 km/h 20.4 km/h 94 % 0 mm
01:33 5.6 °C 4.7 °C 1009.4 hPa East 19 km/h 25.9 km/h 94 % 0 mm
01:38 5.6 °C 4.9 °C 1009.7 hPa East 16.1 km/h 19.3 km/h 95 % 0 mm
01:43 5.6 °C 4.8 °C 1009.7 hPa East 16.3 km/h 22.5 km/h 95 % 0 mm
01:48 5.6 °C 4.8 °C 1010 hPa ENE 19 km/h 24.1 km/h 95 % 0 mm
01:53 5.6 °C 4.8 °C 1010 hPa ENE 19 km/h 27.8 km/h 95 % 0 mm
01:58 5.5 °C 4.8 °C 1010 hPa NE 17.4 km/h 27.8 km/h 95 % 0 mm
02:03 5.5 °C 4.8 °C 1010 hPa ENE 20.4 km/h 29.6 km/h 95 % 0 mm
02:08 5.5 °C 4.8 °C 1010 hPa East 19.3 km/h 29 km/h 95 % 0 mm
02:13 5.5 °C 4.8 °C 1010.4 hPa NE 18.7 km/h 24.1 km/h 95 % 0 mm
02:18 5.5 °C 4.6 °C 1010 hPa ENE 19.2 km/h 29 km/h 94 % 0 mm
02:23 5.6 °C 4.7 °C 1009.7 hPa ENE 20.4 km/h 29.6 km/h 94 % 0 mm
02:28 5.5 °C 4.6 °C 1009.7 hPa ENE 18 km/h 22.2 km/h 94 % 0 mm
02:33 5.5 °C 4.4 °C 1009.4 hPa ENE 22 km/h 33.3 km/h 93 % 0 mm
02:38 5.5 °C 4.4 °C 1009.4 hPa ENE 22.2 km/h 27.8 km/h 93 % 0 mm
02:43 5.5 °C 4.4 °C 1009 hPa ENE 19 km/h 24.1 km/h 93 % 0 mm
02:48 5.5 °C 4.4 °C 1009 hPa East 23.7 km/h 37 km/h 93 % 0 mm
02:53 5.5 °C 4.4 °C 1009 hPa NNE 25.6 km/h 35.2 km/h 93 % 0 mm
02:58 5.5 °C 4.4 °C 1009 hPa ENE 19 km/h 31.5 km/h 93 % 0 mm
03:03 5.5 °C 4.4 °C 1009 hPa East 20.8 km/h 31.5 km/h 93 % 0 mm
03:09 5.5 °C 4.3 °C 1009 hPa NE 21.9 km/h 33.3 km/h 92 % 0 mm
03:14 5.4 °C 4.2 °C 1009 hPa ENE 20.8 km/h 31.5 km/h 92 % 0 mm
03:19 5.4 °C 4.2 °C 1009 hPa East 19.3 km/h 29.6 km/h 92 % 0 mm
03:24 5.4 °C 4.2 °C 1009.4 hPa ENE 19.3 km/h 35.4 km/h 92 % 0 mm
03:29 5.4 °C 4.2 °C 1009.4 hPa ENE 19.3 km/h 24.1 km/h 92 % 0 mm
03:34 5.4 °C 4.2 °C 1009.7 hPa ENE 19.3 km/h 25.7 km/h 92 % 0 mm
03:39 5.4 °C 4.2 °C 1009.7 hPa ENE 19.3 km/h 27.4 km/h 92 % 0 mm
03:44 5.4 °C 4.2 °C 1009.7 hPa ENE 18.2 km/h 25.9 km/h 92 % 0 mm
03:49 5.4 °C 4.2 °C 1009.7 hPa East 19.3 km/h 24.1 km/h 92 % 0 mm
03:54 5.4 °C 4.2 °C 1010 hPa East 20.9 km/h 27.4 km/h 92 % 0 mm
03:59 5.3 °C 4.1 °C 1009.7 hPa East 19.5 km/h 24.1 km/h 92 % 0 mm
04:04 5.3 °C 4.1 °C 1010 hPa East 21.2 km/h 31.5 km/h 92 % 0 mm
04:09 5.4 °C 4.2 °C 1010 hPa East 22.5 km/h 29.6 km/h 92 % 0 mm
04:14 5.4 °C 4.2 °C 1009.7 hPa NE 20.9 km/h 27.8 km/h 92 % 0 mm
04:19 5.3 °C 4.1 °C 1009.7 hPa ENE 18.2 km/h 22.2 km/h 92 % 0 mm
04:24 5.3 °C 4.1 °C 1009.7 hPa ENE 19.6 km/h 24.1 km/h 92 % 0 mm
04:29 5.2 °C 4.1 °C 1009.7 hPa ENE 18.2 km/h 27.8 km/h 92 % 0 mm
04:34 5.2 °C 3.9 °C 1009.7 hPa ENE 20.6 km/h 29.6 km/h 91 % 0 mm
04:39 5.2 °C 3.9 °C 1009.7 hPa ENE 22.7 km/h 30.6 km/h 91 % 0 mm
04:44 5.2 °C 3.9 °C 1009.7 hPa ENE 19.6 km/h 40.7 km/h 91 % 0 mm
04:49 5.2 °C 3.7 °C 1009.7 hPa ENE 20.3 km/h 29.6 km/h 90 % 0 mm
04:54 5.2 °C 3.7 °C 1009.7 hPa ENE 18.5 km/h 25.7 km/h 90 % 0 mm
04:59 5.3 °C 3.6 °C 1009.7 hPa East 20.4 km/h 25.9 km/h 89 % 0 mm
05:04 5.3 °C 3.6 °C 1010 hPa ENE 17.4 km/h 22.5 km/h 89 % 0 mm
05:09 5.2 °C 3.6 °C 1010 hPa East 20.9 km/h 25.7 km/h 89 % 0 mm
05:15 5.3 °C 3.6 °C 1010 hPa East 20.1 km/h 24.1 km/h 89 % 0 mm
05:20 5.2 °C 3.6 °C 1009.7 hPa ENE 21.4 km/h 35.2 km/h 89 % 0 mm
05:25 5.2 °C 3.6 °C 1009.7 hPa ENE 20.8 km/h 29.6 km/h 89 % 0 mm
05:30 5.2 °C 3.6 °C 1009.7 hPa ENE 18.2 km/h 22.5 km/h 89 % 0 mm
05:35 5.2 °C 3.5 °C 1010 hPa ENE 18.3 km/h 27.8 km/h 89 % 0 mm
05:40 5.2 °C 3.3 °C 1009.7 hPa ENE 20 km/h 27.8 km/h 88 % 0 mm
05:45 5.1 °C 3.3 °C 1009.7 hPa East 26.2 km/h 51.8 km/h 88 % 0 mm
05:50 5.1 °C 3.3 °C 1009.7 hPa ENE 24.8 km/h 33.3 km/h 88 % 0 mm
05:55 5.1 °C 3.2 °C 1010 hPa East 21.6 km/h 31.5 km/h 88 % 0 mm
06:00 5.1 °C 3.1 °C 1010.4 hPa East 19.6 km/h 25.9 km/h 87 % 0 mm
06:05 5.1 °C 3.1 °C 1010 hPa East 19.3 km/h 22.5 km/h 87 % 0 mm
06:10 5.1 °C 2.9 °C 1009.7 hPa East 23.2 km/h 27.8 km/h 86 % 0 mm
06:15 5 °C 2.8 °C 1009.4 hPa ENE 22 km/h 27.8 km/h 86 % 0 mm
06:20 4.9 °C 2.8 °C 1009 hPa NE 23.2 km/h 35.2 km/h 86 % 0 mm
06:25 4.9 °C 2.8 °C 1009.4 hPa East 24.6 km/h 33.3 km/h 86 % 0 mm
06:30 4.9 °C 2.6 °C 1009.7 hPa East 22.2 km/h 38.9 km/h 85 % 0 mm
06:35 4.9 °C 2.6 °C 1010 hPa East 22 km/h 27.8 km/h 85 % 0 mm
06:41 4.9 °C 2.6 °C 1010 hPa ENE 23.5 km/h 29.6 km/h 85 % 0 mm
06:46 4.9 °C 2.6 °C 1010 hPa NE 24.8 km/h 30.6 km/h 85 % 0 mm
06:51 4.9 °C 2.4 °C 1010 hPa East 25.1 km/h 31.5 km/h 84 % 0 mm
06:56 4.9 °C 2.4 °C 1010 hPa ENE 23.5 km/h 33.3 km/h 84 % 0 mm
07:01 4.8 °C 2.5 °C 1009.7 hPa ENE 26.7 km/h 38.9 km/h 85 % 0 mm
07:06 4.8 °C 2.4 °C 1010 hPa NE 24.8 km/h 35.4 km/h 85 % 0 mm
07:11 4.7 °C 2.4 °C 1010 hPa East 24.5 km/h 37 km/h 85 % 0 mm
07:16 4.8 °C 2.3 °C 1010 hPa East 26.1 km/h 38.9 km/h 84 % 0 mm
07:21 4.8 °C 2.3 °C 1010 hPa ENE 24.5 km/h 33.3 km/h 84 % 0 mm
07:26 4.8 °C 2.3 °C 1010.4 hPa East 22 km/h 25.9 km/h 84 % 0 mm
07:31 4.8 °C 2.3 °C 1010.4 hPa ENE 22.2 km/h 29 km/h 84 % 0 mm
07:36 4.8 °C 2.3 °C 1010.4 hPa ENE 26.9 km/h 35.2 km/h 84 % 0 mm
07:41 4.7 °C 2.4 °C 1010 hPa East 24.8 km/h 31.5 km/h 85 % 0 mm
07:46 4.7 °C 2.3 °C 1010 hPa ENE 24 km/h 31.5 km/h 85 % 0 mm
07:51 4.7 °C 2.2 °C 1010.4 hPa ENE 26.7 km/h 37 km/h 84 % 0 mm
07:56 4.7 °C 2 °C 1010 hPa East 28.6 km/h 40.2 km/h 83 % 0 mm
08:01 4.6 °C 1.8 °C 1010.4 hPa East 30.9 km/h 48.1 km/h 82 % 0 mm
08:07 4.7 °C 2.2 °C 1010.7 hPa ENE 25.6 km/h 31.5 km/h 84 % 0 mm
08:12 4.6 °C 1.9 °C 1010.7 hPa East 24.5 km/h 33.3 km/h 83 % 0 mm
08:17 4.6 °C 1.8 °C 1010.7 hPa ENE 25.3 km/h 35.2 km/h 82 % 0 mm
08:22 4.6 °C 1.9 °C 1010.7 hPa ENE 28 km/h 37 km/h 83 % 0 mm
08:27 4.7 °C 2 °C 1010.7 hPa East 25.9 km/h 35.2 km/h 83 % 0 mm
08:32 4.6 °C 2.1 °C 1010.4 hPa ENE 29.1 km/h 38.9 km/h 84 % 0 mm
08:37 4.6 °C 2.1 °C 1010.7 hPa ENE 31.2 km/h 37 km/h 84 % 0 mm
08:42 4.5 °C 1.9 °C 1010.7 hPa NE 29 km/h 40.7 km/h 83 % 0 mm
08:47 4.5 °C 1.9 °C 1010.4 hPa ENE 21.7 km/h 31.5 km/h 83 % 0 mm
08:52 4.5 °C 1.9 °C 1010.4 hPa NE 26.2 km/h 31.5 km/h 83 % 0 mm
08:57 4.5 °C 1.9 °C 1010.4 hPa ENE 24.9 km/h 37 km/h 83 % 0 mm
09:02 4.5 °C 2.1 °C 1010.4 hPa ENE 25.4 km/h 37 km/h 84 % 0 mm
09:07 4.5 °C 1.9 °C 1010.4 hPa East 25.9 km/h 31.5 km/h 83 % 0 mm
09:12 4.4 °C 1.6 °C 1010 hPa ENE 24.8 km/h 38.9 km/h 82 % 0 mm
09:17 4.4 °C 1.6 °C 1010 hPa East 29.9 km/h 43.5 km/h 82 % 0 mm
09:22 4.4 °C 1.6 °C 1009.7 hPa NE 29.9 km/h 40.7 km/h 82 % 0 mm
09:27 4.4 °C 1.6 °C 1010 hPa ENE 25.6 km/h 33.3 km/h 82 % 0 mm
09:33 4.4 °C 1.4 °C 1010.4 hPa ENE 30.4 km/h 35.2 km/h 81 % 0 mm
09:38 4.4 °C 1.6 °C 1010.4 hPa East 25.7 km/h 29.6 km/h 82 % 0 mm
09:43 4.5 °C 1.5 °C 1010.4 hPa East 30.3 km/h 41.8 km/h 81 % 0 mm
09:48 4.5 °C 1.5 °C 1010.4 hPa East 31.2 km/h 37 km/h 81 % 0 mm
09:53 4.4 °C 1.3 °C 1010 hPa East 27 km/h 33.3 km/h 80 % 0 mm
09:58 4.5 °C 1.5 °C 1010 hPa ENE 30.1 km/h 42.6 km/h 81 % 0 mm
10:03 4.5 °C 1.5 °C 1010 hPa East 28.2 km/h 37 km/h 81 % 0 mm
10:08 4.5 °C 1.5 °C 1010 hPa East 26.6 km/h 40.7 km/h 81 % 0 mm
10:13 4.4 °C 1.4 °C 1010.4 hPa ENE 29.8 km/h 41.8 km/h 81 % 0 mm
10:18 4.4 °C 1.4 °C 1010 hPa East 24.8 km/h 38.9 km/h 81 % 0 mm
10:23 4.5 °C 1.5 °C 1010 hPa East 24.9 km/h 37 km/h 81 % 0 mm
10:28 4.5 °C 1.3 °C 1010 hPa ENE 29 km/h 48.1 km/h 80 % 0 mm
10:33 4.4 °C 1.3 °C 1010 hPa East 24.8 km/h 35.2 km/h 80 % 0 mm
10:38 4.4 °C 1.4 °C 1010.4 hPa ENE 27.8 km/h 37 km/h 81 % 0 mm
10:43 4.4 °C 1.4 °C 1010.4 hPa East 24.8 km/h 37 km/h 81 % 0 mm
10:48 4.4 °C 1.6 °C 1010 hPa East 25.6 km/h 31.5 km/h 82 % 0 mm
10:53 4.4 °C 1.4 °C 1010.4 hPa East 27.5 km/h 42.6 km/h 81 % 0 mm
10:58 4.4 °C 1.4 °C 1010 hPa East 29.9 km/h 38.9 km/h 81 % 0 mm
11:04 4.4 °C 1.6 °C 1010 hPa East 24.1 km/h 31.5 km/h 82 % 0 mm
11:09 4.4 °C 1.6 °C 1010 hPa East 24.3 km/h 35.2 km/h 82 % 0 mm
11:14 4.3 °C 1.6 °C 1009.7 hPa NE 29.8 km/h 31.5 km/h 82 % 0 mm
11:19 4.3 °C 1.6 °C 1009.7 hPa ENE 25.7 km/h 38.6 km/h 82 % 0 mm
11:24 4.4 °C 1.8 °C 1009.4 hPa ENE 29 km/h 38.6 km/h 83 % 0 mm
11:29 4.3 °C 1.7 °C 1009.4 hPa East 25.7 km/h 42.6 km/h 83 % 0 mm
11:34 4.3 °C 1.7 °C 1009 hPa ENE 22.5 km/h 32.2 km/h 83 % 0 mm
11:39 4.3 °C 1.7 °C 1009 hPa ENE 24.1 km/h 40.2 km/h 83 % 0 mm
11:44 4.3 °C 1.7 °C 1008.7 hPa ENE 22.7 km/h 29.6 km/h 83 % 0 mm
11:49 4.3 °C 1.7 °C 1008.4 hPa ENE 25.7 km/h 40.2 km/h 83 % 0 mm
11:54 4.3 °C 1.7 °C 1008.7 hPa ENE 25.7 km/h 41.8 km/h 83 % 0 mm
11:59 4.3 °C 1.7 °C 1008.7 hPa East 25.3 km/h 40.7 km/h 83 % 0 mm
12:04 4.3 °C 1.7 °C 1008.4 hPa ENE 26.4 km/h 40.7 km/h 83 % 0 mm
12:09 4.3 °C 1.7 °C 1008.4 hPa ENE 28.2 km/h 38.9 km/h 83 % 0 mm
12:14 4.3 °C 1.7 °C 1008 hPa ENE 26.4 km/h 38.9 km/h 83 % 0 mm
12:19 4.3 °C 1.7 °C 1008.4 hPa East 24.9 km/h 33.3 km/h 83 % 0 mm
12:24 4.3 °C 1.7 °C 1008 hPa East 28.3 km/h 40.7 km/h 83 % 0 mm
12:29 4.4 °C 2 °C 1008 hPa East 26.9 km/h 37 km/h 84 % 0 mm
12:34 4.4 °C 2 °C 1008 hPa East 25.7 km/h 35.4 km/h 84 % 0 mm
12:39 4.4 °C 1.8 °C 1007.7 hPa East 24.8 km/h 35.2 km/h 83 % 0 mm
12:44 4.4 °C 1.8 °C 1007.7 hPa East 24.9 km/h 35.2 km/h 83 % 0 mm
12:49 4.4 °C 1.8 °C 1007.7 hPa ENE 25.1 km/h 42.6 km/h 83 % 0 mm
12:54 4.4 °C 1.8 °C 1007.3 hPa ENE 26.2 km/h 31.5 km/h 83 % 0 mm
12:59 4.4 °C 2 °C 1007.3 hPa East 27.5 km/h 38.9 km/h 84 % 0 mm
13:05 4.4 °C 1.9 °C 1007.3 hPa East 28.2 km/h 42.6 km/h 84 % 0 mm
13:10 4.4 °C 2.1 °C 1007.3 hPa ESE 24.3 km/h 29.6 km/h 85 % 0 mm
13:15 4.4 °C 1.9 °C 1007 hPa ENE 30.1 km/h 42.6 km/h 84 % 0 mm
13:20 4.4 °C 1.9 °C 1006.7 hPa ENE 31.1 km/h 38.9 km/h 84 % 0 mm
13:25 4.3 °C 1.9 °C 1006.3 hPa East 27.5 km/h 40.7 km/h 84 % 0 mm
13:30 4.3 °C 1.9 °C 1006.7 hPa ENE 27.7 km/h 33.3 km/h 84 % 0 mm
13:31 4.4 °C 1.8 °C 1006.7 hPa East 24.1 km/h 38.9 km/h 83 % 0 mm
13:36 4.4 °C 1.8 °C 1006.3 hPa ENE 23.5 km/h 25.9 km/h 83 % 0 mm
13:41 4.4 °C 1.9 °C 1006.3 hPa ENE 21.4 km/h 31.5 km/h 84 % 0 mm
13:46 4.4 °C 1.8 °C 1006.3 hPa East 29.1 km/h 38.9 km/h 83 % 0 mm
13:51 4.4 °C 1.6 °C 1006.3 hPa ENE 25.9 km/h 40.7 km/h 82 % 0 mm
13:56 4.4 °C 1.6 °C 1006.3 hPa ENE 24.3 km/h 37 km/h 82 % 0 mm
14:01 4.4 °C 1.8 °C 1006.3 hPa NE 28 km/h 37 km/h 83 % 0 mm
14:06 4.4 °C 1.6 °C 1006.3 hPa NE 25.4 km/h 37 km/h 82 % 0 mm
14:11 4.3 °C 1.3 °C 1006 hPa East 29.3 km/h 38.9 km/h 81 % 0 mm
14:16 4.3 °C 1.3 °C 1006 hPa East 27.2 km/h 38.9 km/h 81 % 0 mm
14:21 4.3 °C 1.6 °C 1005.6 hPa East 27.8 km/h 40.7 km/h 82 % 0 mm
14:26 4.3 °C 1.5 °C 1005.6 hPa ENE 34.4 km/h 48.1 km/h 82 % 0 mm
14:31 4.3 °C 1.5 °C 1005.3 hPa NE 31.9 km/h 38.9 km/h 82 % 0 mm
14:36 4.2 °C 1.6 °C 1005.6 hPa ENE 34.4 km/h 38.9 km/h 83 % 0 mm
14:41 4.1 °C 1.5 °C 1005.3 hPa ENE 34.4 km/h 46.3 km/h 83 % 0 mm
14:46 4.1 °C 1.6 °C 1005 hPa East 31.5 km/h 46.3 km/h 84 % 0 mm
14:52 4 °C 1.4 °C 1005 hPa NE 29.5 km/h 42.6 km/h 83 % 0 mm
14:57 4.1 °C 1.8 °C 1005 hPa NE 27.2 km/h 37 km/h 85 % 0 mm
15:02 4.1 °C 1.4 °C 1004.6 hPa ENE 32.3 km/h 61.2 km/h 83 % 0 mm
15:07 4.1 °C 1.6 °C 1005 hPa ENE 29.1 km/h 42.6 km/h 84 % 0 mm
15:12 4.1 °C 1.8 °C 1005 hPa ENE 29.8 km/h 38.9 km/h 85 % 0 mm
15:17 4 °C 1.7 °C 1004.6 hPa ENE 28.6 km/h 40.7 km/h 85 % 0 mm
15:22 4 °C 1.7 °C 1004.3 hPa East 34.4 km/h 44.4 km/h 85 % 0 mm
15:27 4 °C 1.7 °C 1004.6 hPa East 33.2 km/h 46.3 km/h 85 % 0 mm
15:32 4 °C 1.6 °C 1004.6 hPa East 37.5 km/h 50 km/h 84 % 0 mm
15:37 4.1 °C 1.6 °C 1004.6 hPa ENE 33 km/h 50 km/h 84 % 0 mm
15:42 4.1 °C 1.8 °C 1004.3 hPa ENE 27.4 km/h 40.7 km/h 85 % 0 mm
15:47 4.1 °C 1.8 °C 1004.6 hPa ENE 26.7 km/h 37 km/h 85 % 0 mm
15:52 4.1 °C 1.7 °C 1004.6 hPa ENE 28.8 km/h 40.7 km/h 84 % 0 mm
15:57 4.1 °C 1.7 °C 1004.6 hPa ENE 32.5 km/h 40.2 km/h 84 % 0 mm
16:02 4.2 °C 1.9 °C 1004.3 hPa East 33.5 km/h 43.5 km/h 85 % 0 mm
16:07 4.1 °C 1.6 °C 1003.9 hPa ENE 36.2 km/h 48.1 km/h 84 % 0 mm
16:12 4.1 °C 1.8 °C 1004.3 hPa ENE 32.7 km/h 46.7 km/h 85 % 0 mm
16:17 4.1 °C 1.8 °C 1003.9 hPa East 33.2 km/h 48.3 km/h 85 % 0 mm
16:23 4 °C 1.7 °C 1003.6 hPa ENE 37.3 km/h 42.6 km/h 85 % 0 mm
16:28 4 °C 1.9 °C 1003.6 hPa ENE 37 km/h 45.1 km/h 86 % 0 mm
16:33 4.1 °C 1.8 °C 1003.6 hPa NE 32.8 km/h 53.8 km/h 85 % 0 mm
16:38 4.1 °C 1.8 °C 1003.3 hPa ENE 33.6 km/h 40.7 km/h 85 % 0 mm
16:43 4.1 °C 1.8 °C 1003.3 hPa East 32 km/h 50 km/h 85 % 0 mm
16:48 4.1 °C 1.8 °C 1003.6 hPa ENE 30.6 km/h 48.1 km/h 85 % 0 mm
16:53 4.1 °C 1.8 °C 1003.6 hPa ENE 27.5 km/h 40.7 km/h 85 % 0 mm
16:58 4.2 °C 1.9 °C 1003.6 hPa ENE 33.3 km/h 51.8 km/h 85 % 0 mm
17:03 4.1 °C 2 °C 1003.6 hPa ENE 24.1 km/h 44.4 km/h 86 % 0 mm
17:08 4.1 °C 1.9 °C 1003.6 hPa East 39.3 km/h 50 km/h 86 % 0 mm
17:13 3.9 °C 2.1 °C 1003.6 hPa ENE 32.3 km/h 46.7 km/h 88 % 0 mm
17:18 3.9 °C 2.2 °C 1003.6 hPa East 30.4 km/h 50 km/h 89 % 0 mm
17:23 3.8 °C 2.2 °C 1003.6 hPa NE 26.9 km/h 38.9 km/h 89 % 0 mm
17:28 3.8 °C 2.2 °C 1003.6 hPa NNE 32.3 km/h 41.8 km/h 89 % 0.25 mm
17:33 3.8 °C 2.1 °C 1003.6 hPa ENE 29.6 km/h 41.8 km/h 89 % 0.25 mm
17:38 3.8 °C 2.1 °C 1003.6 hPa NE 29.6 km/h 35.4 km/h 89 % 0.25 mm
17:43 3.8 °C 2.1 °C 1003.6 hPa NE 25.6 km/h 38.9 km/h 89 % 0.25 mm
17:48 3.8 °C 2.1 °C 1003.3 hPa ENE 28.8 km/h 41.8 km/h 89 % 0.51 mm
17:53 3.7 °C 2.2 °C 1003.3 hPa ENE 24.8 km/h 33.8 km/h 90 % 0.76 mm
17:59 3.7 °C 2.2 °C 1003.6 hPa ENE 29.6 km/h 38.9 km/h 90 % 0.76 mm
18:04 3.7 °C 2.3 °C 1003.6 hPa ENE 24.5 km/h 29 km/h 91 % 1.02 mm
18:09 3.6 °C 2.3 °C 1003.6 hPa NE 25.4 km/h 37 km/h 91 % 1.52 mm
18:14 3.6 °C 2.4 °C 1003.6 hPa NE 27.8 km/h 40.7 km/h 92 % 1.78 mm
18:19 3.6 °C 2.3 °C 1003.9 hPa ENE 24.1 km/h 40.2 km/h 92 % 0 mm
18:24 3.5 °C 2.5 °C 1003.9 hPa ENE 29 km/h 41.8 km/h 93 % 0 mm
18:29 3.4 °C 2.4 °C 1004.3 hPa ENE 22.5 km/h 40.2 km/h 93 % 0 mm
18:34 3.4 °C 2.4 °C 1004.3 hPa ENE 22.5 km/h 40.2 km/h 93 % 0 mm
18:39 3.4 °C 2.4 °C 1003.9 hPa NNE 24.9 km/h 40.7 km/h 93 % 3.05 mm
18:44 3.4 °C 2.4 °C 1003.9 hPa ENE 25.7 km/h 37 km/h 93 % 0 mm
18:49 3.3 °C 2.4 °C 1004.3 hPa ENE 21.6 km/h 40.7 km/h 94 % 3.3 mm
18:54 3.3 °C 2.4 °C 1003.9 hPa ENE 24.1 km/h 41.8 km/h 94 % 0 mm
18:59 3.3 °C 2.4 °C 1003.6 hPa ENE 24.5 km/h 29.6 km/h 94 % 3.56 mm
19:04 3.3 °C 2.4 °C 1003.3 hPa ENE 22.5 km/h 38.6 km/h 94 % 0.25 mm
19:09 3.3 °C 2.4 °C 1003.3 hPa ENE 24.1 km/h 33.8 km/h 94 % 0 mm
19:14 3.3 °C 2.4 °C 1003.3 hPa ENE 25.7 km/h 37 km/h 94 % 0 mm
19:19 3.3 °C 2.6 °C 1003.3 hPa ENE 22.5 km/h 33.8 km/h 95 % 0 mm
19:24 3.2 °C 2.5 °C 1003.6 hPa ENE 25.7 km/h 35.4 km/h 95 % 0.25 mm
19:29 3.2 °C 2.5 °C 1003.6 hPa ENE 22.5 km/h 35.4 km/h 95 % 0.25 mm
19:34 3.2 °C 2.5 °C 1003.6 hPa ENE 22.5 km/h 33.8 km/h 95 % 0.25 mm
19:39 3.2 °C 2.4 °C 1003.6 hPa NE 22.5 km/h 33.8 km/h 95 % 0.25 mm
19:44 3.2 °C 2.4 °C 1003.6 hPa NE 22 km/h 29.6 km/h 95 % 3.3 mm
19:49 3.2 °C 2.4 °C 1003.3 hPa ENE 22.5 km/h 40.2 km/h 95 % 0 mm
19:54 3.1 °C 2.4 °C 1003.3 hPa ENE 16.1 km/h 37 km/h 95 % 0 mm
19:59 3.1 °C 2.4 °C 1003.3 hPa NNE 19.2 km/h 25.9 km/h 95 % 3.3 mm
20:04 3.1 °C 2.3 °C 1002.9 hPa NE 17.7 km/h 31.5 km/h 95 % 3.3 mm
20:09 2.9 °C 2.2 °C 1002.6 hPa ENE 26.4 km/h 37 km/h 95 % 3.05 mm
20:14 2.9 °C 2.2 °C 1002.6 hPa East 25.4 km/h 38.9 km/h 95 % 3.3 mm
20:19 2.9 °C 2.2 °C 1002.6 hPa ENE 20 km/h 30.6 km/h 95 % 3.3 mm
20:24 2.8 °C 2.1 °C 1002.3 hPa ENE 18.2 km/h 31.5 km/h 95 % 3.3 mm
20:29 2.8 °C 2.1 °C 1002.3 hPa ENE 20 km/h 33.8 km/h 95 % 3.05 mm
20:34 2.8 °C 2.1 °C 1002.3 hPa East 22.7 km/h 31.5 km/h 95 % 2.79 mm
20:39 2.8 °C 2.1 °C 1002.3 hPa NNE 21.4 km/h 37 km/h 95 % 2.79 mm
20:44 2.8 °C 2.1 °C 1002.3 hPa NE 21.7 km/h 33.3 km/h 95 % 2.79 mm
20:50 2.8 °C 2.1 °C 1001.9 hPa NE 18.2 km/h 35.2 km/h 95 % 2.54 mm
20:55 2.7 °C 2 °C 1001.9 hPa East 24.8 km/h 38.9 km/h 95 % 2.54 mm
21:00 2.8 °C 2.1 °C 1001.6 hPa ENE 27.2 km/h 42.6 km/h 95 % 2.03 mm
21:05 2.8 °C 2.1 °C 1001.6 hPa NE 26.1 km/h 40.7 km/h 95 % 1.78 mm
21:10 2.8 °C 2.1 °C 1001.6 hPa NE 29.1 km/h 43.5 km/h 95 % 1.78 mm
21:15 2.8 °C 2.1 °C 1001.6 hPa ENE 23.7 km/h 40.7 km/h 95 % 1.52 mm
21:20 2.8 °C 2.1 °C 1001.2 hPa ENE 23.7 km/h 40.7 km/h 95 % 1.27 mm
21:25 2.8 °C 2.1 °C 1001.2 hPa East 28 km/h 44.4 km/h 95 % 1.02 mm
21:30 2.8 °C 2.1 °C 1000.9 hPa ENE 29.6 km/h 38.9 km/h 95 % 1.27 mm
21:35 2.8 °C 2.1 °C 1000.9 hPa NNE 27 km/h 40.2 km/h 95 % 1.27 mm
21:40 2.8 °C 2.1 °C 1000.9 hPa ENE 29.5 km/h 44.4 km/h 95 % 1.27 mm
21:45 2.8 °C 2.1 °C 1000.6 hPa NE 28.6 km/h 42.6 km/h 95 % 1.27 mm
21:50 2.8 °C 2.1 °C 1000.2 hPa ENE 27.8 km/h 38.9 km/h 95 % 1.52 mm
21:55 2.8 °C 2.3 °C 1000.2 hPa NE 21.9 km/h 38.6 km/h 96 % 1.27 mm
22:00 2.8 °C 2.3 °C 1000.2 hPa ENE 27.7 km/h 44.4 km/h 96 % 1.52 mm
22:06 2.8 °C 2.3 °C 1000.2 hPa ENE 21.9 km/h 37 km/h 96 % 1.78 mm
22:11 2.9 °C 2.4 °C 999.9 hPa NE 23.2 km/h 37 km/h 96 % 1.52 mm
22:16 2.9 °C 2.3 °C 999.5 hPa ENE 29.1 km/h 42.6 km/h 96 % 1.78 mm
22:21 2.9 °C 2.4 °C 999.5 hPa ENE 27.2 km/h 42.6 km/h 96 % 1.78 mm
22:26 2.9 °C 2.3 °C 999.2 hPa ENE 25.4 km/h 42.6 km/h 96 % 1.78 mm
22:31 2.9 °C 2.3 °C 999.2 hPa NE 25.4 km/h 35.4 km/h 96 % 2.03 mm
22:36 2.9 °C 2.3 °C 999.2 hPa NNE 21.2 km/h 42.6 km/h 96 % 1.78 mm
22:41 2.9 °C 2.3 °C 999.2 hPa East 25.4 km/h 37 km/h 96 % 2.03 mm
22:46 2.9 °C 2.4 °C 998.9 hPa ENE 27.4 km/h 38.6 km/h 96 % 2.03 mm
22:51 2.9 °C 2.4 °C 998.9 hPa NE 19.8 km/h 35.4 km/h 96 % 1.78 mm
22:56 2.9 °C 2.4 °C 998.5 hPa ENE 23 km/h 37 km/h 96 % 2.29 mm
23:01 2.9 °C 2.4 °C 998.5 hPa East 29.9 km/h 38.6 km/h 96 % 2.03 mm
23:06 2.9 °C 2.4 °C 998.5 hPa ENE 24.9 km/h 42.6 km/h 96 % 2.03 mm
23:11 2.9 °C 2.4 °C 998.2 hPa ENE 23.5 km/h 30.6 km/h 96 % 2.29 mm
23:16 3 °C 2.4 °C 998.2 hPa ENE 25.7 km/h 42.6 km/h 96 % 2.29 mm
23:21 3.1 °C 2.5 °C 998.2 hPa ENE 27 km/h 35.4 km/h 96 % 2.29 mm
23:26 3.1 °C 2.5 °C 997.9 hPa ENE 29 km/h 38.9 km/h 96 % 2.29 mm
23:32 3.1 °C 2.5 °C 997.9 hPa ENE 26.9 km/h 37 km/h 96 % 2.29 mm
23:37 3.1 °C 2.5 °C 997.9 hPa NE 24.9 km/h 31.5 km/h 96 % 2.54 mm
23:42 3.1 °C 2.6 °C 997.5 hPa ENE 20.8 km/h 31.5 km/h 96 % 2.54 mm
23:47 3.1 °C 2.6 °C 997.2 hPa ENE 28.2 km/h 42.6 km/h 96 % 2.54 mm
23:52 3.1 °C 2.6 °C 997.2 hPa NE 21.7 km/h 33.3 km/h 96 % 2.54 mm
23:57 3.2 °C 2.6 °C 997.2 hPa East 24.6 km/h 38.9 km/h 96 % 2.54 mm
Crab Meadow Weather
Compliments of Weather Underground - 3 mb

Script developed by  Jim McMurry - jmcmurry@mwt.net Adapted for the template by  Wim van der Kuil - Leuven-Template.eu

Astronomy: One day on Jupiter is only 9 hours and 55 minutes.